This is the latest recevied weather packets stored in our database for station/object JH1LWU-13. If no packets are shown the sender has not sent any weather packets the latest 10 day(s).
| Time | Temp. | Humidity | Pressure | Rain* | Wind** | Luminosity | Snow |
|---|---|---|---|---|---|---|---|
| 1787885215 | 35° C | 40% | 1003 hPa | - | - | - | - |
| 1787883414 | 33.89° C | 42% | 1004 hPa | - | - | - | - |
| 1787881613 | 32.78° C | 45% | 1005 hPa | - | - | - | - |
| 1787879812 | 32.22° C | 48% | 1005 hPa | - | - | - | - |
| 1787878011 | 30° C | 55% | 1005 hPa | - | - | - | - |
| 1787876210 | 31.11° C | 50% | 1002 hPa | - | - | - | - |
| 1787874409 | 30° C | 54% | 1004 hPa | - | - | - | - |
| 1787872608 | 26.67° C | 64% | 1004 hPa | - | - | - | - |
| 1787870807 | 25.56° C | 68% | 1005 hPa | - | - | - | - |
| 1787869006 | 23.89° C | 73% | 1005 hPa | - | - | - | - |
| 1787867205 | 23.89° C | 75% | 1005 hPa | - | - | - | - |
| 1787865404 | 23.33° C | 76% | 1003 hPa | - | - | - | - |
| 1787863603 | 22.78° C | 77% | 1003 hPa | - | - | - | - |
| 1787861802 | 23.33° C | 77% | 1004 hPa | - | - | - | - |
| 1787860001 | 23.33° C | 77% | 1004 hPa | - | - | - | - |
| 1787858200 | 23.89° C | 77% | 1005 hPa | - | - | - | - |
| 1787856399 | 23.89° C | 76% | 1005 hPa | - | - | - | - |
| 1787854598 | 24.44° C | 76% | 1003 hPa | - | - | - | - |
| 1787852797 | 24.44° C | 74% | 1003 hPa | - | - | - | - |
| 1787850996 | 24.44° C | 74% | 1003 hPa | - | - | - | - |
| 1787849195 | 25° C | 72% | 1004 hPa | - | - | - | - |
| 1787847394 | 24.44° C | 73% | 1003 hPa | - | - | - | - |
| 1787845593 | 24.44° C | 73% | 1005 hPa | - | - | - | - |
| 1787843792 | 23.89° C | 73% | 1003 hPa | - | - | - | - |
| 1787841991 | 24.44° C | 73% | 1005 hPa | - | - | - | - |
* Rain since midnight (hover to see other rain measurements)
** Current wind speed in m/s (hover to see current wind gust speed)